sensor_id;sensor_type;location;lat;lon;timestamp;temperature;humidity
3268;DHT22;1646;52.450;13.326;2022-11-09T00:02:40;13.70;99.90
3268;DHT22;1646;52.450;13.326;2022-11-09T00:07:39;13.70;99.90
3268;DHT22;1646;52.450;13.326;2022-11-09T00:12:37;13.70;99.90
3268;DHT22;1646;52.450;13.326;2022-11-09T00:17:37;13.80;99.90
3268;DHT22;1646;52.450;13.326;2022-11-09T00:22:35;13.80;99.90
3268;DHT22;1646;52.450;13.326;2022-11-09T00:27:32;13.70;99.90
3268;DHT22;1646;52.450;13.326;2022-11-09T00:32:30;13.70;99.90
3268;DHT22;1646;52.450;13.326;2022-11-09T00:37:30;13.80;99.90
3268;DHT22;1646;52.450;13.326;2022-11-09T00:42:28;13.80;99.90
3268;DHT22;1646;52.450;13.326;2022-11-09T00:47:26;13.80;99.90
3268;DHT22;1646;52.450;13.326;2022-11-09T00:52:24;13.70;99.90
3268;DHT22;1646;52.450;13.326;2022-11-09T00:57:23;13.60;99.90
3268;DHT22;1646;52.450;13.326;2022-11-09T01:02:21;13.60;99.90
3268;DHT22;1646;52.450;13.326;2022-11-09T01:07:19;13.70;99.90
3268;DHT22;1646;52.450;13.326;2022-11-09T01:12:17;13.70;99.90
3268;DHT22;1646;52.450;13.326;2022-11-09T01:17:17;13.60;99.90
3268;DHT22;1646;52.450;13.326;2022-11-09T01:22:16;13.50;99.90
3268;DHT22;1646;52.450;13.326;2022-11-09T01:27:16;13.50;99.90
3268;DHT22;1646;52.450;13.326;2022-11-09T01:32:14;13.40;99.90
3268;DHT22;1646;52.450;13.326;2022-11-09T01:37:13;13.40;99.90
3268;DHT22;1646;52.450;13.326;2022-11-09T01:42:11;13.30;99.90
3268;DHT22;1646;52.450;13.326;2022-11-09T01:47:16;13.20;99.90
3268;DHT22;1646;52.450;13.326;2022-11-09T01:52:20;13.10;99.90
3268;DHT22;1646;52.450;13.326;2022-11-09T01:57:23;13.10;99.90
3268;DHT22;1646;52.450;13.326;2022-11-09T02:02:22;13.00;99.90
3268;DHT22;1646;52.450;13.326;2022-11-09T02:07:22;12.90;99.90
3268;DHT22;1646;52.450;13.326;2022-11-09T02:12:23;12.90;99.90
3268;DHT22;1646;52.450;13.326;2022-11-09T02:17:22;12.90;99.90
3268;DHT22;1646;52.450;13.326;2022-11-09T02:22:22;12.80;99.90
3268;DHT22;1646;52.450;13.326;2022-11-09T02:27:20;12.70;99.90
3268;DHT22;1646;52.450;13.326;2022-11-09T02:32:20;12.60;99.90
3268;DHT22;1646;52.450;13.326;2022-11-09T02:37:26;12.60;99.90
3268;DHT22;1646;52.450;13.326;2022-11-09T02:42:24;12.50;99.90
3268;DHT22;1646;52.450;13.326;2022-11-09T02:47:22;12.50;99.90
3268;DHT22;1646;52.450;13.326;2022-11-09T02:52:20;12.60;99.90
3268;DHT22;1646;52.450;13.326;2022-11-09T02:57:22;12.60;99.90
3268;DHT22;1646;52.450;13.326;2022-11-09T03:02:20;12.70;99.90
3268;DHT22;1646;52.450;13.326;2022-11-09T03:07:20;12.70;99.90
3268;DHT22;1646;52.450;13.326;2022-11-09T03:12:18;12.80;99.90
3268;DHT22;1646;52.450;13.326;2022-11-09T03:17:33;12.80;99.90
3268;DHT22;1646;52.450;13.326;2022-11-09T03:22:32;12.80;99.90
3268;DHT22;1646;52.450;13.326;2022-11-09T03:27:30;12.80;99.90
3268;DHT22;1646;52.450;13.326;2022-11-09T03:32:28;12.70;99.90
3268;DHT22;1646;52.450;13.326;2022-11-09T03:37:28;12.70;99.90
3268;DHT22;1646;52.450;13.326;2022-11-09T03:42:26;12.60;99.90
3268;DHT22;1646;52.450;13.326;2022-11-09T03:47:24;12.50;99.90
3268;DHT22;1646;52.450;13.326;2022-11-09T03:52:22;12.60;99.90
3268;DHT22;1646;52.450;13.326;2022-11-09T03:57:22;12.70;99.90
3268;DHT22;1646;52.450;13.326;2022-11-09T04:02:20;12.80;99.90
3268;DHT22;1646;52.450;13.326;2022-11-09T04:07:17;13.00;99.90
3268;DHT22;1646;52.450;13.326;2022-11-09T04:12:16;13.10;99.90
3268;DHT22;1646;52.450;13.326;2022-11-09T04:17:15;13.10;99.90
3268;DHT22;1646;52.450;13.326;2022-11-09T04:22:13;13.10;99.90
3268;DHT22;1646;52.450;13.326;2022-11-09T04:27:11;13.10;99.90
3268;DHT22;1646;52.450;13.326;2022-11-09T04:32:09;13.20;99.90
3268;DHT22;1646;52.450;13.326;2022-11-09T04:37:08;13.10;99.90
3268;DHT22;1646;52.450;13.326;2022-11-09T04:42:06;13.10;99.90
3268;DHT22;1646;52.450;13.326;2022-11-09T04:47:04;13.10;99.90
3268;DHT22;1646;52.450;13.326;2022-11-09T04:52:02;13.20;99.90
3268;DHT22;1646;52.450;13.326;2022-11-09T04:57:02;13.20;99.90
3268;DHT22;1646;52.450;13.326;2022-11-09T05:02:00;13.00;99.90
3268;DHT22;1646;52.450;13.326;2022-11-09T05:06:58;13.00;99.90
3268;DHT22;1646;52.450;13.326;2022-11-09T05:11:56;12.90;99.90
3268;DHT22;1646;52.450;13.326;2022-11-09T05:16:55;13.00;99.90
3268;DHT22;1646;52.450;13.326;2022-11-09T05:21:53;13.10;99.90
3268;DHT22;1646;52.450;13.326;2022-11-09T05:26:51;13.10;99.90
3268;DHT22;1646;52.450;13.326;2022-11-09T05:31:49;13.10;99.90
3268;DHT22;1646;52.450;13.326;2022-11-09T05:36:49;13.10;99.90
3268;DHT22;1646;52.450;13.326;2022-11-09T05:41:47;13.00;99.90
3268;DHT22;1646;52.450;13.326;2022-11-09T05:46:45;12.90;99.90
3268;DHT22;1646;52.450;13.326;2022-11-09T05:51:43;12.90;99.90
3268;DHT22;1646;52.450;13.326;2022-11-09T05:56:42;13.00;99.90
3268;DHT22;1646;52.450;13.326;2022-11-09T06:01:40;13.10;99.90
3268;DHT22;1646;52.450;13.326;2022-11-09T06:06:38;13.10;99.90
3268;DHT22;1646;52.450;13.326;2022-11-09T06:11:36;13.10;99.90
3268;DHT22;1646;52.450;13.326;2022-11-09T06:16:36;13.10;99.90
3268;DHT22;1646;52.450;13.326;2022-11-09T06:21:34;13.10;99.90
3268;DHT22;1646;52.450;13.326;2022-11-09T06:26:32;13.10;99.90
3268;DHT22;1646;52.450;13.326;2022-11-09T06:31:30;13.10;99.90
3268;DHT22;1646;52.450;13.326;2022-11-09T06:36:29;13.20;99.90
3268;DHT22;1646;52.450;13.326;2022-11-09T06:41:27;13.10;99.90
3268;DHT22;1646;52.450;13.326;2022-11-09T06:46:25;13.10;99.90
3268;DHT22;1646;52.450;13.326;2022-11-09T06:51:23;13.20;99.90
3268;DHT22;1646;52.450;13.326;2022-11-09T06:56:23;13.30;99.90
3268;DHT22;1646;52.450;13.326;2022-11-09T07:01:25;13.30;99.90
3268;DHT22;1646;52.450;13.326;2022-11-09T07:06:24;13.40;99.90
3268;DHT22;1646;52.450;13.326;2022-11-09T07:11:23;13.50;99.90
3268;DHT22;1646;52.450;13.326;2022-11-09T07:16:21;13.50;99.90
3268;DHT22;1646;52.450;13.326;2022-11-09T07:21:19;13.50;99.90
3268;DHT22;1646;52.450;13.326;2022-11-09T07:26:17;13.40;99.90
3268;DHT22;1646;52.450;13.326;2022-11-09T07:31:16;13.30;99.90
3268;DHT22;1646;52.450;13.326;2022-11-09T07:36:14;13.20;99.90
3268;DHT22;1646;52.450;13.326;2022-11-09T07:41:17;13.10;99.90
3268;DHT22;1646;52.450;13.326;2022-11-09T07:46:16;13.00;99.90
3268;DHT22;1646;52.450;13.326;2022-11-09T07:51:14;13.00;99.90
3268;DHT22;1646;52.450;13.326;2022-11-09T07:56:12;13.00;99.90
3268;DHT22;1646;52.450;13.326;2022-11-09T08:01:10;13.00;99.90
3268;DHT22;1646;52.450;13.326;2022-11-09T08:06:09;12.90;99.90
3268;DHT22;1646;52.450;13.326;2022-11-09T08:11:14;12.90;99.90
3268;DHT22;1646;52.450;13.326;2022-11-09T08:16:12;12.80;99.90
3268;DHT22;1646;52.450;13.326;2022-11-09T08:21:11;12.80;99.90
3268;DHT22;1646;52.450;13.326;2022-11-09T08:26:10;13.00;99.90
3268;DHT22;1646;52.450;13.326;2022-11-09T08:31:08;12.80;99.90
3268;DHT22;1646;52.450;13.326;2022-11-09T08:36:12;12.90;99.90
3268;DHT22;1646;52.450;13.326;2022-11-09T08:41:11;12.90;99.90
3268;DHT22;1646;52.450;13.326;2022-11-09T08:46:10;12.90;99.90
3268;DHT22;1646;52.450;13.326;2022-11-09T08:51:08;12.90;99.90
3268;DHT22;1646;52.450;13.326;2022-11-09T08:56:07;12.80;99.90
3268;DHT22;1646;52.450;13.326;2022-11-09T09:01:07;12.70;99.90
3268;DHT22;1646;52.450;13.326;2022-11-09T09:06:12;12.80;99.90
3268;DHT22;1646;52.450;13.326;2022-11-09T09:11:11;12.70;99.90
3268;DHT22;1646;52.450;13.326;2022-11-09T09:16:10;12.80;99.90
3268;DHT22;1646;52.450;13.326;2022-11-09T09:21:10;13.00;99.90
3268;DHT22;1646;52.450;13.326;2022-11-09T09:26:10;13.20;99.90
3268;DHT22;1646;52.450;13.326;2022-11-09T09:31:08;13.30;99.90
3268;DHT22;1646;52.450;13.326;2022-11-09T09:36:16;13.60;99.90
3268;DHT22;1646;52.450;13.326;2022-11-09T09:41:20;14.00;99.90
3268;DHT22;1646;52.450;13.326;2022-11-09T09:46:23;14.50;99.90
3268;DHT22;1646;52.450;13.326;2022-11-09T09:51:28;14.70;99.90
3268;DHT22;1646;52.450;13.326;2022-11-09T09:56:31;15.00;99.90
3268;DHT22;1646;52.450;13.326;2022-11-09T10:01:35;14.80;99.90
3268;DHT22;1646;52.450;13.326;2022-11-09T10:06:44;14.90;99.90
3268;DHT22;1646;52.450;13.326;2022-11-09T10:11:50;14.90;99.90
3268;DHT22;1646;52.450;13.326;2022-11-09T10:17:01;14.40;99.90
3268;DHT22;1646;52.450;13.326;2022-11-09T10:22:08;14.20;99.90
3268;DHT22;1646;52.450;13.326;2022-11-09T10:27:24;14.00;99.90
3268;DHT22;1646;52.450;13.326;2022-11-09T10:32:23;14.00;99.90
3268;DHT22;1646;52.450;13.326;2022-11-09T10:37:25;14.00;99.90
3268;DHT22;1646;52.450;13.326;2022-11-09T10:42:26;14.50;99.90
3268;DHT22;1646;52.450;13.326;2022-11-09T10:47:46;16.20;99.90
3268;DHT22;1646;52.450;13.326;2022-11-09T10:53:09;20.20;99.90
3268;DHT22;1646;52.450;13.326;2022-11-09T10:58:33;21.40;99.90
3268;DHT22;1646;52.450;13.326;2022-11-09T11:03:51;21.60;99.90
3268;DHT22;1646;52.450;13.326;2022-11-09T11:09:15;23.90;99.90
3268;DHT22;1646;52.450;13.326;2022-11-09T11:14:34;25.10;99.90
3268;DHT22;1646;52.450;13.326;2022-11-09T11:20:24;26.50;99.90
3268;DHT22;1646;52.450;13.326;2022-11-09T11:26:05;27.60;99.60
3268;DHT22;1646;52.450;13.326;2022-11-09T11:31:29;26.60;96.50
3268;DHT22;1646;52.450;13.326;2022-11-09T11:36:53;24.10;99.80
3268;DHT22;1646;52.450;13.326;2022-11-09T11:42:28;22.90;99.90
3268;DHT22;1646;52.450;13.326;2022-11-09T11:47:54;23.00;99.90
3268;DHT22;1646;52.450;13.326;2022-11-09T11:53:29;23.20;99.90
3268;DHT22;1646;52.450;13.326;2022-11-09T11:59:19;23.60;99.90
3268;DHT22;1646;52.450;13.326;2022-11-09T12:04:54;23.50;99.90
3268;DHT22;1646;52.450;13.326;2022-11-09T12:10:23;20.80;99.90
3268;DHT22;1646;52.450;13.326;2022-11-09T12:15:51;20.20;99.90
3268;DHT22;1646;52.450;13.326;2022-11-09T12:21:17;19.80;99.90
3268;DHT22;1646;52.450;13.326;2022-11-09T12:26:44;19.00;99.90
3268;DHT22;1646;52.450;13.326;2022-11-09T12:32:30;18.60;99.90
3268;DHT22;1646;52.450;13.326;2022-11-09T12:37:55;19.00;99.90
3268;DHT22;1646;52.450;13.326;2022-11-09T12:43:18;18.90;99.90
3268;DHT22;1646;52.450;13.326;2022-11-09T12:48:36;18.60;99.90
3268;DHT22;1646;52.450;13.326;2022-11-09T12:53:55;18.20;99.90
3268;DHT22;1646;52.450;13.326;2022-11-09T12:59:20;17.40;99.90
3268;DHT22;1646;52.450;13.326;2022-11-09T13:04:38;17.10;99.90
3268;DHT22;1646;52.450;13.326;2022-11-09T13:09:58;17.30;99.90
3268;DHT22;1646;52.450;13.326;2022-11-09T13:15:23;17.20;99.90
3268;DHT22;1646;52.450;13.326;2022-11-09T13:20:43;16.90;99.90
3268;DHT22;1646;52.450;13.326;2022-11-09T13:26:23;16.70;99.90
3268;DHT22;1646;52.450;13.326;2022-11-09T13:32:02;16.50;99.90
3268;DHT22;1646;52.450;13.326;2022-11-09T13:37:43;16.40;99.90
3268;DHT22;1646;52.450;13.326;2022-11-09T13:43:04;16.30;99.90
3268;DHT22;1646;52.450;13.326;2022-11-09T13:48:39;16.20;99.90
3268;DHT22;1646;52.450;13.326;2022-11-09T13:53:57;16.30;99.90
3268;DHT22;1646;52.450;13.326;2022-11-09T13:59:17;16.20;99.90
3268;DHT22;1646;52.450;13.326;2022-11-09T14:04:38;16.30;99.90
3268;DHT22;1646;52.450;13.326;2022-11-09T14:10:01;16.20;99.90
3268;DHT22;1646;52.450;13.326;2022-11-09T14:15:27;16.20;99.90
3268;DHT22;1646;52.450;13.326;2022-11-09T14:20:53;16.00;99.90
3268;DHT22;1646;52.450;13.326;2022-11-09T14:26:16;16.00;99.90
3268;DHT22;1646;52.450;13.326;2022-11-09T14:31:41;16.00;99.90
3268;DHT22;1646;52.450;13.326;2022-11-09T14:37:00;16.00;99.90
3268;DHT22;1646;52.450;13.326;2022-11-09T14:42:22;16.00;99.90
3268;DHT22;1646;52.450;13.326;2022-11-09T14:47:44;16.00;99.90
3268;DHT22;1646;52.450;13.326;2022-11-09T14:53:01;15.80;99.90
3268;DHT22;1646;52.450;13.326;2022-11-09T14:58:20;15.60;99.90
3268;DHT22;1646;52.450;13.326;2022-11-09T15:03:40;15.50;99.90
3268;DHT22;1646;52.450;13.326;2022-11-09T15:08:59;15.20;99.90
3268;DHT22;1646;52.450;13.326;2022-11-09T15:14:24;15.00;99.90
3268;DHT22;1646;52.450;13.326;2022-11-09T15:19:49;14.90;99.90
3268;DHT22;1646;52.450;13.326;2022-11-09T15:25:19;14.90;99.90
3268;DHT22;1646;52.450;13.326;2022-11-09T15:30:38;14.80;99.90
3268;DHT22;1646;52.450;13.326;2022-11-09T15:36:04;14.80;99.90
3268;DHT22;1646;52.450;13.326;2022-11-09T15:41:22;14.90;99.90
3268;DHT22;1646;52.450;13.326;2022-11-09T15:46:44;14.90;99.90
3268;DHT22;1646;52.450;13.326;2022-11-09T15:52:03;14.80;99.90
3268;DHT22;1646;52.450;13.326;2022-11-09T15:57:20;14.80;99.90
3268;DHT22;1646;52.450;13.326;2022-11-09T16:02:37;14.70;99.90
3268;DHT22;1646;52.450;13.326;2022-11-09T16:07:55;14.60;99.90
3268;DHT22;1646;52.450;13.326;2022-11-09T16:13:11;14.50;99.90
3268;DHT22;1646;52.450;13.326;2022-11-09T16:18:28;14.40;99.90
3268;DHT22;1646;52.450;13.326;2022-11-09T16:23:47;14.30;99.90
3268;DHT22;1646;52.450;13.326;2022-11-09T16:29:10;14.20;99.90
3268;DHT22;1646;52.450;13.326;2022-11-09T16:34:26;14.10;99.90
3268;DHT22;1646;52.450;13.326;2022-11-09T16:39:44;14.00;99.90
3268;DHT22;1646;52.450;13.326;2022-11-09T16:45:05;13.90;99.90
3268;DHT22;1646;52.450;13.326;2022-11-09T16:50:23;13.80;99.90
3268;DHT22;1646;52.450;13.326;2022-11-09T16:55:41;13.80;99.90
3268;DHT22;1646;52.450;13.326;2022-11-09T17:01:00;13.70;99.90
3268;DHT22;1646;52.450;13.326;2022-11-09T17:06:28;13.70;99.90
3268;DHT22;1646;52.450;13.326;2022-11-09T17:11:46;13.70;99.90
3268;DHT22;1646;52.450;13.326;2022-11-09T17:17:03;13.50;99.90
3268;DHT22;1646;52.450;13.326;2022-11-09T17:22:19;13.50;99.90
3268;DHT22;1646;52.450;13.326;2022-11-09T17:27:38;13.50;99.90
3268;DHT22;1646;52.450;13.326;2022-11-09T17:32:54;13.50;99.90
3268;DHT22;1646;52.450;13.326;2022-11-09T17:38:11;13.40;99.90
3268;DHT22;1646;52.450;13.326;2022-11-09T17:43:30;13.40;99.90
3268;DHT22;1646;52.450;13.326;2022-11-09T17:48:48;13.40;99.90
3268;DHT22;1646;52.450;13.326;2022-11-09T17:54:05;13.50;99.90
3268;DHT22;1646;52.450;13.326;2022-11-09T17:59:23;13.50;99.90
3268;DHT22;1646;52.450;13.326;2022-11-09T18:04:39;13.50;99.90
3268;DHT22;1646;52.450;13.326;2022-11-09T18:09:56;13.60;99.90
3268;DHT22;1646;52.450;13.326;2022-11-09T18:15:14;13.70;99.90
3268;DHT22;1646;52.450;13.326;2022-11-09T18:20:31;13.70;99.90
3268;DHT22;1646;52.450;13.326;2022-11-09T18:25:55;13.70;99.90
3268;DHT22;1646;52.450;13.326;2022-11-09T18:31:13;13.70;99.90
3268;DHT22;1646;52.450;13.326;2022-11-09T18:36:30;13.80;99.90
3268;DHT22;1646;52.450;13.326;2022-11-09T18:41:47;13.90;99.90
3268;DHT22;1646;52.450;13.326;2022-11-09T18:47:05;14.00;99.90
3268;DHT22;1646;52.450;13.326;2022-11-09T18:52:24;14.10;99.90
3268;DHT22;1646;52.450;13.326;2022-11-09T18:57:40;14.10;99.90
3268;DHT22;1646;52.450;13.326;2022-11-09T19:02:58;14.20;99.90
3268;DHT22;1646;52.450;13.326;2022-11-09T19:08:15;14.20;99.90
3268;DHT22;1646;52.450;13.326;2022-11-09T19:13:52;14.20;99.90
3268;DHT22;1646;52.450;13.326;2022-11-09T19:19:12;14.20;99.90
3268;DHT22;1646;52.450;13.326;2022-11-09T19:24:29;14.10;99.90
3268;DHT22;1646;52.450;13.326;2022-11-09T19:29:46;14.00;99.90
3268;DHT22;1646;52.450;13.326;2022-11-09T19:35:05;13.80;99.90
3268;DHT22;1646;52.450;13.326;2022-11-09T19:40:21;13.70;99.90
3268;DHT22;1646;52.450;13.326;2022-11-09T19:45:41;13.60;99.90
3268;DHT22;1646;52.450;13.326;2022-11-09T19:51:00;13.50;99.90
3268;DHT22;1646;52.450;13.326;2022-11-09T19:56:18;13.50;99.90
3268;DHT22;1646;52.450;13.326;2022-11-09T20:01:34;13.60;99.90
3268;DHT22;1646;52.450;13.326;2022-11-09T20:06:53;13.60;99.90
3268;DHT22;1646;52.450;13.326;2022-11-09T20:12:10;13.50;99.90
3268;DHT22;1646;52.450;13.326;2022-11-09T20:17:44;13.30;99.90
3268;DHT22;1646;52.450;13.326;2022-11-09T20:23:02;13.40;99.90
3268;DHT22;1646;52.450;13.326;2022-11-09T20:28:19;13.40;99.90
3268;DHT22;1646;52.450;13.326;2022-11-09T20:33:36;13.30;99.90
3268;DHT22;1646;52.450;13.326;2022-11-09T20:38:54;13.20;99.90
3268;DHT22;1646;52.450;13.326;2022-11-09T20:44:11;13.20;99.90
3268;DHT22;1646;52.450;13.326;2022-11-09T20:49:27;13.20;99.90
3268;DHT22;1646;52.450;13.326;2022-11-09T20:54:45;13.00;99.90
3268;DHT22;1646;52.450;13.326;2022-11-09T21:00:03;13.00;99.90
3268;DHT22;1646;52.450;13.326;2022-11-09T21:05:20;12.90;99.90
3268;DHT22;1646;52.450;13.326;2022-11-09T21:10:37;12.90;99.90
3268;DHT22;1646;52.450;13.326;2022-11-09T21:15:54;12.90;99.90
3268;DHT22;1646;52.450;13.326;2022-11-09T21:21:12;12.90;99.90
3268;DHT22;1646;52.450;13.326;2022-11-09T21:26:30;13.00;99.90
3268;DHT22;1646;52.450;13.326;2022-11-09T21:32:05;13.00;99.90
3268;DHT22;1646;52.450;13.326;2022-11-09T21:37:22;13.10;99.90
3268;DHT22;1646;52.450;13.326;2022-11-09T21:42:40;13.10;99.90
3268;DHT22;1646;52.450;13.326;2022-11-09T21:47:57;13.10;99.90
3268;DHT22;1646;52.450;13.326;2022-11-09T21:53:13;13.10;99.90
3268;DHT22;1646;52.450;13.326;2022-11-09T21:58:32;13.20;99.90
3268;DHT22;1646;52.450;13.326;2022-11-09T22:03:49;13.20;99.90
3268;DHT22;1646;52.450;13.326;2022-11-09T22:09:07;13.10;99.90
3268;DHT22;1646;52.450;13.326;2022-11-09T22:14:26;13.10;99.90
3268;DHT22;1646;52.450;13.326;2022-11-09T22:20:01;13.10;99.90
3268;DHT22;1646;52.450;13.326;2022-11-09T22:25:34;13.10;99.90
3268;DHT22;1646;52.450;13.326;2022-11-09T22:30:52;13.10;99.90
3268;DHT22;1646;52.450;13.326;2022-11-09T22:36:11;13.10;99.90
3268;DHT22;1646;52.450;13.326;2022-11-09T22:41:28;13.10;99.90
3268;DHT22;1646;52.450;13.326;2022-11-09T22:46:46;13.20;99.90
3268;DHT22;1646;52.450;13.326;2022-11-09T22:52:04;13.20;99.90
3268;DHT22;1646;52.450;13.326;2022-11-09T22:57:21;13.10;99.90
3268;DHT22;1646;52.450;13.326;2022-11-09T23:02:38;13.10;99.90
3268;DHT22;1646;52.450;13.326;2022-11-09T23:07:55;13.20;99.90
3268;DHT22;1646;52.450;13.326;2022-11-09T23:13:12;13.10;99.90
3268;DHT22;1646;52.450;13.326;2022-11-09T23:18:30;13.10;99.90
3268;DHT22;1646;52.450;13.326;2022-11-09T23:24:06;13.10;99.90
3268;DHT22;1646;52.450;13.326;2022-11-09T23:29:43;12.90;99.90
3268;DHT22;1646;52.450;13.326;2022-11-09T23:35:01;12.80;99.90
3268;DHT22;1646;52.450;13.326;2022-11-09T23:40:18;13.00;99.90
3268;DHT22;1646;52.450;13.326;2022-11-09T23:45:35;13.10;99.90
3268;DHT22;1646;52.450;13.326;2022-11-09T23:50:56;13.20;99.90
3268;DHT22;1646;52.450;13.326;2022-11-09T23:56:13;13.30;99.90
